Guthrie, Texas
Current Conditions -  °F | °C
As of 5:15 AM on Thursday 23 Oct 2014 (Local Time) from KCDS Reporting Station
Moderate Fog Moderate Fog  
Wind Chill: 60°   Ceiling: 200
Heat Index: 60°   Visibility: 0.25mi
Dew Point: 59°   Wind: 3mph
Humidity: 96%   Direction: 220°SW
Pressure: 30.11"   Gusts: NA
Location:  33.62°N, 100.32°W
Report Text: KCDS 231015Z AUTO 22003KT 1/4SM FG BKN002 OVC043 16/15 A3011 RMK AO2 T01560150
Loading
Personal Weather Stations






























Interactive Weather Map
Tropical Storm Tracking
New forecast layout! Learn more

10-Day Weather Forecast

Advertisements
Track Severe Weather on mobile